createdAt,value
2022-10-16T00:02:36.387Z,16.25
2022-10-16T00:07:39.039Z,16.21
2022-10-16T00:12:43.005Z,16.18
2022-10-16T00:17:45.611Z,16.10
2022-10-16T00:22:48.217Z,16.09
2022-10-16T00:27:52.117Z,16.07
2022-10-16T00:32:54.840Z,16.04
2022-10-16T00:37:57.540Z,16.04
2022-10-16T00:43:01.519Z,16.06
2022-10-16T00:48:04.247Z,16.07
2022-10-16T00:53:06.941Z,16.10
2022-10-16T00:58:11.406Z,16.16
2022-10-16T01:03:29.743Z,16.22
2022-10-16T01:08:36.669Z,16.26
2022-10-16T01:13:43.624Z,16.29
2022-10-16T01:18:48.848Z,16.29
2022-10-16T01:23:57.089Z,16.31
2022-10-16T01:29:06.006Z,16.31
2022-10-16T01:34:14.983Z,16.30
2022-10-16T01:39:18.417Z,16.29
2022-10-16T01:44:24.387Z,16.27
2022-10-16T01:49:30.171Z,16.27
2022-10-16T01:54:34.478Z,16.27
2022-10-16T01:59:42.965Z,16.28
2022-10-16T02:04:48.731Z,16.26
2022-10-16T02:09:51.619Z,16.23
2022-10-16T02:14:55.857Z,16.20
2022-10-16T02:19:58.835Z,16.15
2022-10-16T02:25:05.236Z,16.13
2022-10-16T02:30:15.151Z,16.10
2022-10-16T02:35:19.591Z,16.09
2022-10-16T02:40:25.192Z,16.09
2022-10-16T02:45:30.148Z,16.06
2022-10-16T02:50:32.787Z,16.03
2022-10-16T02:55:35.428Z,16.01
2022-10-16T03:00:39.492Z,15.98
2022-10-16T03:05:42.150Z,15.96
2022-10-16T03:10:44.935Z,15.91
2022-10-16T03:15:49.426Z,15.89
2022-10-16T03:20:52.081Z,15.91
2022-10-16T03:25:55.037Z,15.92
2022-10-16T03:30:58.985Z,15.92
2022-10-16T03:36:01.786Z,15.91
2022-10-16T03:41:04.799Z,15.89
2022-10-16T03:46:08.797Z,15.89
2022-10-16T03:51:11.547Z,15.91
2022-10-16T03:56:14.180Z,15.90
2022-10-16T04:01:18.278Z,15.86
2022-10-16T04:06:20.875Z,15.85
2022-10-16T04:11:23.533Z,15.84
2022-10-16T04:16:27.535Z,15.83
2022-10-16T04:21:30.235Z,15.82
2022-10-16T04:26:33.822Z,15.81
2022-10-16T04:31:37.759Z,15.80
2022-10-16T04:36:40.334Z,15.78
2022-10-16T04:41:42.886Z,15.75
2022-10-16T04:46:46.812Z,15.73
2022-10-16T04:51:49.486Z,15.67
2022-10-16T04:56:52.919Z,15.63
2022-10-16T05:01:57.174Z,15.60
2022-10-16T05:06:59.791Z,15.58
2022-10-16T05:12:04.403Z,15.58
2022-10-16T05:17:08.374Z,15.59
2022-10-16T05:22:11.055Z,15.56
2022-10-16T05:27:19.674Z,15.56
2022-10-16T05:32:23.702Z,15.55
2022-10-16T05:37:26.509Z,15.51
2022-10-16T05:42:29.420Z,15.50
2022-10-16T05:47:34.267Z,15.52
2022-10-16T05:52:37.004Z,15.56
2022-10-16T05:57:39.685Z,15.59
2022-10-16T06:02:43.669Z,15.59
2022-10-16T06:07:46.260Z,15.66
2022-10-16T06:12:48.912Z,15.70
2022-10-16T06:17:52.876Z,15.75
2022-10-16T06:22:55.525Z,15.82
2022-10-16T06:27:58.163Z,15.86
2022-10-16T06:33:02.155Z,15.93
2022-10-16T06:38:04.816Z,16.00
2022-10-16T06:43:07.549Z,16.09
2022-10-16T06:48:11.598Z,16.13
2022-10-16T06:53:14.185Z,16.17
2022-10-16T06:58:16.841Z,16.19
2022-10-16T07:03:20.810Z,16.23
2022-10-16T07:08:23.399Z,16.26
2022-10-16T07:13:26.241Z,16.27
2022-10-16T07:23:34.111Z,16.28
2022-10-16T07:28:36.778Z,16.31
2022-10-16T07:33:42.811Z,16.36
2022-10-16T07:38:46.000Z,16.42
2022-10-16T07:43:49.198Z,16.52
2022-10-16T07:48:53.468Z,16.62
2022-10-16T07:53:56.250Z,16.70
2022-10-16T07:58:58.982Z,16.80
2022-10-16T08:04:02.977Z,16.90
2022-10-16T08:09:05.979Z,16.94
2022-10-16T08:14:08.682Z,16.98
2022-10-16T08:19:12.866Z,17.00
2022-10-16T08:24:15.519Z,17.06
2022-10-16T08:29:18.139Z,17.12
2022-10-16T08:34:22.094Z,17.26
2022-10-16T08:39:24.863Z,17.39
2022-10-16T08:44:37.070Z,17.49
2022-10-16T08:49:43.505Z,17.59
2022-10-16T08:54:49.417Z,17.73
2022-10-16T08:59:52.322Z,17.83
2022-10-16T09:05:04.456Z,17.86
2022-10-16T09:10:16.207Z,17.89
2022-10-16T09:15:25.796Z,17.87
2022-10-16T09:20:34.999Z,17.88
2022-10-16T09:25:40.452Z,17.88
2022-10-16T09:30:43.415Z,17.92
2022-10-16T09:35:49.187Z,17.96
2022-10-16T09:40:58.901Z,18.03
2022-10-16T09:46:07.763Z,18.08
2022-10-16T09:51:20.270Z,18.07
2022-10-16T09:56:25.279Z,18.13
2022-10-16T10:01:32.713Z,18.22
2022-10-16T10:06:39.001Z,18.37
2022-10-16T10:11:51.806Z,18.46
2022-10-16T10:17:03.381Z,18.54
2022-10-16T10:22:17.921Z,18.64
2022-10-16T10:27:20.790Z,18.68
2022-10-16T10:32:30.640Z,18.59
2022-10-16T10:37:45.721Z,18.60
2022-10-16T10:42:52.401Z,18.62
2022-10-16T10:48:05.162Z,18.60
2022-10-16T10:53:18.053Z,18.61
2022-10-16T10:58:59.338Z,18.69
2022-10-16T11:04:21.799Z,18.83
2022-10-16T11:09:28.177Z,18.97
2022-10-16T11:14:35.542Z,19.08
2022-10-16T11:19:43.865Z,19.13
2022-10-16T11:24:51.999Z,19.17
2022-10-16T11:29:58.748Z,19.08
2022-10-16T11:35:05.008Z,19.05
2022-10-16T11:40:21.338Z,19.07
2022-10-16T11:45:29.623Z,19.09
2022-10-16T11:50:36.910Z,19.14
2022-10-16T11:55:46.051Z,19.13
2022-10-16T12:00:55.507Z,19.11
2022-10-16T12:06:08.935Z,19.12
2022-10-16T12:11:25.674Z,19.14
2022-10-16T12:16:28.256Z,19.17
2022-10-16T12:21:32.623Z,19.19
2022-10-16T12:26:40.086Z,19.21
2022-10-16T12:31:57.292Z,19.22
2022-10-16T12:37:11.487Z,19.24
2022-10-16T12:42:25.873Z,19.51
2022-10-16T12:47:39.081Z,19.75
2022-10-16T12:52:41.955Z,20.21
2022-10-16T12:58:00.133Z,20.21
2022-10-16T13:03:35.377Z,20.19
2022-10-16T13:08:52.611Z,19.87
2022-10-16T13:14:17.083Z,19.61
2022-10-16T13:19:26.730Z,19.45
2022-10-16T13:24:44.332Z,19.63
2022-10-16T13:29:56.247Z,20.04
2022-10-16T13:34:59.284Z,20.01
2022-10-16T13:40:11.499Z,19.90
2022-10-16T13:45:21.242Z,19.88
2022-10-16T13:50:24.266Z,19.99
2022-10-16T13:55:27.146Z,19.87
2022-10-16T14:00:31.387Z,19.71
2022-10-16T14:05:34.390Z,19.61
2022-10-16T14:10:37.312Z,19.49
2022-10-16T14:15:41.563Z,19.51
2022-10-16T14:20:44.446Z,19.54
2022-10-16T14:25:47.145Z,19.62
2022-10-16T14:30:55.703Z,19.70
2022-10-16T14:36:04.131Z,19.64
2022-10-16T14:41:07.529Z,19.59
2022-10-16T14:46:15.233Z,19.50
2022-10-16T14:51:19.224Z,19.40
2022-10-16T14:56:23.404Z,19.33
2022-10-16T15:01:27.554Z,19.26
2022-10-16T15:06:30.394Z,19.14
2022-10-16T15:11:33.943Z,19.04
2022-10-16T15:16:38.243Z,19.15
2022-10-16T15:21:50.593Z,19.36
2022-10-16T15:26:53.241Z,19.21
2022-10-16T15:31:55.899Z,19.04
2022-10-16T15:37:00.786Z,18.89
2022-10-16T15:42:03.625Z,18.81
2022-10-16T15:47:06.536Z,18.78
2022-10-16T15:52:10.649Z,18.76
2022-10-16T15:57:13.266Z,18.72
2022-10-16T16:02:15.916Z,18.70
2022-10-16T16:07:20.185Z,18.66
2022-10-16T16:12:22.891Z,18.61
2022-10-16T16:17:25.741Z,18.56
2022-10-16T16:22:30.821Z,18.52
2022-10-16T16:27:35.322Z,18.43
2022-10-16T16:32:38.106Z,18.34
2022-10-16T16:37:42.058Z,18.26
2022-10-16T16:42:44.712Z,18.15
2022-10-16T16:47:47.370Z,18.02
2022-10-16T16:52:51.428Z,17.93
2022-10-16T16:57:54.468Z,17.87
2022-10-16T17:02:57.500Z,17.79
2022-10-16T17:08:01.471Z,17.70
2022-10-16T17:13:04.181Z,17.61
2022-10-16T17:18:06.950Z,17.51
2022-10-16T17:23:12.019Z,17.45
2022-10-16T17:28:15.358Z,17.47
2022-10-16T17:33:18.147Z,17.41
2022-10-16T17:38:22.784Z,17.37
2022-10-16T17:43:25.762Z,17.34
2022-10-16T17:48:28.606Z,17.29
2022-10-16T17:53:33.177Z,17.25
2022-10-16T17:58:36.053Z,17.22
2022-10-16T18:03:38.747Z,17.18
2022-10-16T18:08:42.688Z,17.17
2022-10-16T18:13:45.541Z,17.17
2022-10-16T18:18:48.294Z,17.14
2022-10-16T18:23:52.485Z,17.09
2022-10-16T18:28:56.812Z,17.09
2022-10-16T18:33:59.643Z,17.06
2022-10-16T18:39:09.151Z,17.03
2022-10-16T18:44:13.152Z,17.00
2022-10-16T18:49:15.843Z,16.98
2022-10-16T18:54:19.853Z,16.96
2022-10-16T18:59:22.588Z,16.91
2022-10-16T19:04:25.270Z,16.96
2022-10-16T19:09:29.349Z,16.94
2022-10-16T19:14:32.758Z,16.86
2022-10-16T19:19:35.929Z,16.84
2022-10-16T19:24:40.154Z,16.84
2022-10-16T19:29:42.970Z,16.80
2022-10-16T19:34:46.869Z,16.81
2022-10-16T19:39:51.687Z,16.80
2022-10-16T19:44:54.425Z,16.73
2022-10-16T19:49:57.060Z,16.67
2022-10-16T19:55:01.073Z,16.62
2022-10-16T20:00:05.045Z,16.60
2022-10-16T20:05:10.258Z,16.56
2022-10-16T20:10:14.247Z,16.50
2022-10-16T20:15:16.878Z,16.53
2022-10-16T20:20:19.559Z,16.55
2022-10-16T20:25:23.551Z,16.48
2022-10-16T20:30:26.201Z,16.45
2022-10-16T20:35:29.026Z,16.42
2022-10-16T20:40:35.273Z,16.37
2022-10-16T20:45:37.858Z,16.32
2022-10-16T20:50:41.004Z,16.27
2022-10-16T20:55:44.951Z,16.19
2022-10-16T21:00:47.526Z,16.14
2022-10-16T21:05:50.113Z,16.13
2022-10-16T21:10:54.129Z,16.10
2022-10-16T21:15:56.695Z,16.08
2022-10-16T21:20:59.382Z,16.04
2022-10-16T21:26:03.423Z,16.01
2022-10-16T21:31:12.857Z,16.04
2022-10-16T21:36:17.205Z,16.09
2022-10-16T21:41:22.875Z,16.10
2022-10-16T21:46:27.009Z,16.10
2022-10-16T21:51:31.135Z,16.10
2022-10-16T21:56:35.544Z,16.10
2022-10-16T22:01:38.185Z,16.11
2022-10-16T22:06:41.205Z,16.10
2022-10-16T22:11:45.740Z,16.12
2022-10-16T22:16:48.906Z,16.12
2022-10-16T22:21:54.531Z,16.14
2022-10-16T22:26:58.474Z,16.09
2022-10-16T22:32:01.238Z,16.06
2022-10-16T22:37:03.890Z,16.13
2022-10-16T22:42:08.150Z,16.17
2022-10-16T22:47:10.929Z,16.13
2022-10-16T22:52:15.198Z,16.13
2022-10-16T22:57:19.156Z,16.12
2022-10-16T23:02:21.804Z,16.07
2022-10-16T23:07:24.394Z,16.03
2022-10-16T23:12:28.780Z,16.00
2022-10-16T23:17:31.710Z,16.01
2022-10-16T23:22:34.330Z,16.01
2022-10-16T23:27:38.414Z,15.95
2022-10-16T23:32:41.600Z,15.87
2022-10-16T23:37:44.261Z,15.85
2022-10-16T23:42:48.229Z,15.82
2022-10-16T23:47:51.015Z,15.79
2022-10-16T23:52:53.696Z,15.77
2022-10-16T23:57:57.766Z,15.77
